This is the latest recevied weather packets stored in our database for station/object OE3PDB-4. If no packets are shown the sender has not sent any weather packets the latest 10 day(s).
| Time | Temp. | Humidity | Pressure | Rain* | Wind** | Luminosity | Snow |
|---|---|---|---|---|---|---|---|
| 1777584610 | 7.78° C | 45% | 1027.8 hPa | 0 mm | - | - | - |
| 1777584010 | 7.78° C | 44% | 1027.8 hPa | 0 mm | - | - | - |
| 1777583410 | 8.33° C | 43% | 1027.7 hPa | 0 mm | - | - | - |
| 1777582810 | 8.33° C | 43% | 1027.7 hPa | 0 mm | - | - | - |
| 1777581010 | 9.44° C | 40% | 1027.8 hPa | 0 mm | - | - | - |
| 1777580410 | 9.44° C | 40% | 1027.7 hPa | 0 mm | - | - | - |
| 1777579810 | 9.44° C | 39% | 1027.7 hPa | 0 mm | - | - | - |
| 1777577410 | 11.11° C | 36% | 1027.4 hPa | 0 mm | - | - | - |
| 1777576810 | 11.11° C | 36% | 1027.4 hPa | 0 mm | - | - | - |
| 1777566010 | 17.22° C | 26% | 1026.3 hPa | 0 mm | - | - | - |
| 1777564811 | 17.78° C | 24% | 1026.4 hPa | 0 mm | - | - | - |
| 1777563011 | 18.33° C | 23% | 1026.5 hPa | 0 mm | - | - | - |
| 1777562411 | 18.33° C | 24% | 1026.7 hPa | 0 mm | - | - | - |
| 1777561811 | 18.33° C | 23% | 1026.7 hPa | 0 mm | - | - | - |
| 1777561211 | 18.33° C | 24% | 1026.8 hPa | 0 mm | - | - | - |
| 1777560611 | 17.78° C | 23% | 1026.8 hPa | 0 mm | - | - | - |
| 1777560011 | 18.33° C | 23% | 1026.9 hPa | 0 mm | - | - | - |
| 1777559411 | 18.33° C | 24% | 1027 hPa | 0 mm | - | - | - |
| 1777558811 | 18.33° C | 24% | 1027 hPa | 0 mm | - | - | - |
| 1777558211 | 18.33° C | 24% | 1027.2 hPa | 0 mm | - | - | - |
| 1777557611 | 18.33° C | 24% | 1027.3 hPa | 0 mm | - | - | - |
| 1777557011 | 17.78° C | 24% | 1027.3 hPa | 0 mm | - | - | - |
| 1777555811 | 17.78° C | 24% | 1027.6 hPa | 0 mm | - | - | - |
| 1777555211 | 17.78° C | 23% | 1027.5 hPa | 0 mm | - | - | - |
| 1777554611 | 17.78° C | 25% | 1027.7 hPa | 0 mm | - | - | - |
* Rain latest hour (hover to see other rain measurements)
** Current wind speed in m/s (hover to see current wind gust speed)